Flight Track Log - Related Links

Times and Time Zones

All times are in EDT time to prevent confusion due to time zone crossing. See the SWA642 flight status page for this flight to view local times or setup timezone preferences in your user account.

Time Position Orientation Groundspeed Altitude Reporting Facility
EDT Latitude Longitude Course Direction KTS MPH feet Rate Location/Type
Sun 06:51:51 AM 40.8147 -73.0764 97° East 149 171 1,600  Level Boston Center
Sun 06:52:51 AM 40.8089 -73.0133 97° East 157 181 3,900 2,400 Climbing Boston Center
Sun 06:53:51 AM 40.7967 -72.9200 100° East 209 241 6,400 2,050 Climbing Boston Center
Sun 06:54:51 AM 40.7783 -72.8128 103° East 253 291 8,000 1,600 Climbing Boston Center
Sun 06:55:51 AM 40.7600 -72.7058 103° East 283 326 9,600 1,650 Climbing Boston Center
Sun 06:56:51 AM 40.7394 -72.5908 103° East 327 376 11,300 2,550 Climbing Boston Center
Sun 06:57:51 AM 40.6853 -72.4756 122° Southeast 358 412 14,700 3,300 Climbing Boston Center
Sun 06:58:51 AM 40.5914 -72.4947 189° South 276 318 17,900 3,050 Climbing Boston Center
Sun 06:59:51 AM 40.5558 -72.6231 250° West 231 266 20,800 2,750 Climbing Boston Center
Sun 07:00:51 AM 40.5328 -72.7486 256° West 295 339 23,400 2,529 Climbing Boston Center
Sun 07:01:52 AM 40.5072 -72.8742 255° West 323 372 25,900 2,122 Climbing Boston Center
Sun 07:03:52 AM 40.4608 -73.1414 257° West 366 421 29,800 1,967 Climbing New York Center
Sun 07:04:52 AM 40.4436 -73.2744 260° West 373 429 31,800 1,835 Climbing New York Center
Sun 07:05:53 AM 40.4239 -73.4100 259° West 379 436 33,500 1,714 Climbing New York Center
Sun 07:06:51 AM 40.4083 -73.5431 261° West 379 436 35,200 1,550 Climbing New York Center
Sun 07:07:53 AM 40.3906 -73.6758 260° West 379 436 36,600 1,140 Climbing New York Center
Sun 07:08:52 AM 40.3683 -73.8111 258° West 379 436 37,500 1,041 Climbing New York Center
Sun 07:09:54 AM 40.3481 -73.9464 259° West 379 436 38,700 1,050 Climbing New York Center
Sun 07:10:52 AM 40.3297 -74.0817 260° West 379 436 39,600 661 Climbing New York Center
Sun 07:11:52 AM 40.3069 -74.2222 258° West 392 451 40,000 198 Climbing New York Center
Sun 07:12:53 AM 40.2883 -74.3600 260° West 392 451 40,000  Level New York Center
Sun 07:13:53 AM 40.2672 -74.4975 259° West 392 451 40,000  Level New York Center
Sun 07:14:52 AM 40.2461 -74.6378 259° West 392 451 40,000  Level New York Center
Sun 07:15:51 AM 40.2250 -74.7672 258° West 397 457 40,000  Level New York Center
Sun 07:16:54 AM 40.2056 -74.9128 260° West 397 457 40,000  Level New York Center
Sun 07:17:51 AM 40.1836 -75.0556 259° West 397 457 40,000  Level New York Center
Sun 07:18:52 AM 40.1619 -75.1925 258° West 397 457 40,000  Level New York Center
Sun 07:19:53 AM 40.1378 -75.3322 257° West 392 451 40,000  Level New York Center
Sun 07:20:51 AM 40.0853 -75.4483 239° Southwest 377 434 40,000  Level New York Center
Sun 07:21:51 AM 40.0103 -75.5517 227° Southwest 386 444 40,000  Level New York Center
Sun 07:22:53 AM 39.9375 -75.6522 227° Southwest 386 444 40,000  Level New York Center
Sun 07:23:52 AM 39.8706 -75.7558 230° Southwest 386 444 40,000  Level New York Center
Sun 07:24:52 AM 39.8056 -75.8592 231° Southwest 386 444 40,000  Level New York Center
Sun 07:25:52 AM 39.7364 -75.9650 230° Southwest 386 444 40,000  Level New York Center
Sun 07:28:16 AM 39.5828 -76.2081 231° Southwest 382 440 40,000  Level Washington Center
Sun 07:29:16 AM 39.5156 -76.3097 229° Southwest 377 434 40,000  Level Washington Center
Sun 07:30:16 AM 39.4483 -76.4139 230° Southwest 377 434 40,000  Level Washington Center
Sun 07:31:16 AM 39.3789 -76.5178 229° Southwest 377 434 40,000  Level Washington Center
Sun 07:32:16 AM 39.3111 -76.6217 230° Southwest 377 434 40,000  Level Washington Center
Sun 07:33:16 AM 39.2436 -76.7278 231° Southwest 377 434 40,000  Level Washington Center
Sun 07:34:16 AM 39.1736 -76.8367 230° Southwest 382 440 40,000  Level Washington Center
Sun 07:35:16 AM 39.0994 -76.9531 231° Southwest 382 440 40,000  Level Washington Center
Sun 07:36:16 AM 39.0358 -77.0453 228° Southwest 382 440 40,000  Level Washington Center
Sun 07:37:16 AM 38.9556 -77.1372 222° Southwest 387 445 40,000  Level Washington Center
Sun 07:38:16 AM 38.8731 -77.2261 220° Southwest 387 445 40,000  Level Washington Center
Sun 07:39:16 AM 38.7906 -77.3147 220° Southwest 393 452 40,000  Level Washington Center
Sun 07:40:16 AM 38.7081 -77.4033 220° Southwest 393 452 40,000  Level Washington Center
Sun 07:41:16 AM 38.6189 -77.5047 222° Southwest 393 452 40,000  Level Washington Center
Sun 07:42:16 AM 38.5361 -77.5956 221° Southwest 393 452 40,000  Level Washington Center
Sun 07:43:16 AM 38.4511 -77.6833 219° Southwest 388 447 40,000  Level Washington Center
Sun 07:44:16 AM 38.3703 -77.7739 221° Southwest 393 452 40,000  Level Washington Center
Sun 07:45:16 AM 38.2831 -77.8667 220° Southwest 393 452 40,000  Level Washington Center
Sun 07:46:16 AM 38.2022 -77.9567 221° Southwest 398 458 40,000  Level Washington Center
Sun 07:47:16 AM 38.1256 -78.0333 218° Southwest 398 458 40,000  Level Washington Center
Sun 07:48:16 AM 38.0336 -78.1358 221° Southwest 400 460 40,000  Level Washington Center
Sun 07:49:16 AM 37.9506 -78.2172 218° Southwest 394 453 40,000  Level Washington Center
Sun 07:50:16 AM 37.8631 -78.3036 218° Southwest 394 453 40,000  Level Washington Center
Sun 07:51:16 AM 37.7736 -78.3844 216° Southwest 399 459 40,000  Level Washington Center
Sun 07:52:16 AM 37.6861 -78.4678 217° Southwest 399 459 40,000  Level Washington Center
Sun 07:53:16 AM 37.6094 -78.5411 217° Southwest 399 459 40,000  Level Washington Center
Sun 07:54:16 AM 37.5219 -78.6214 216° Southwest 399 459 40,000  Level Washington Center
Sun 07:55:16 AM 37.4319 -78.7067 217° Southwest 399 459 40,000  Level Washington Center
Sun 07:56:16 AM 37.3422 -78.7894 216° Southwest 399 459 40,000  Level Washington Center
Sun 07:57:16 AM 37.2525 -78.8717 216° Southwest 399 459 40,000  Level Washington Center
Sun 07:58:16 AM 37.1539 -78.9639 217° Southwest 404 465 40,000  Level Washington Center
Sun 07:59:17 AM 37.0639 -79.0483 217° Southwest 404 465 40,000  Level Washington Center
Sun 08:00:16 AM 36.9719 -79.1275 215° Southwest 404 465 40,000  Level Washington Center
Sun 08:01:16 AM 36.8839 -79.2117 217° Southwest 404 465 40,000  Level Washington Center
Sun 08:02:16 AM 36.7936 -79.2958 217° Southwest 404 465 40,000  Level Washington Center
Sun 08:03:16 AM 36.7142 -79.3697 217° Southwest 404 465 40,000  Level Washington Center
Sun 08:04:16 AM 36.6239 -79.4506 216° Southwest 399 459 40,000  Level Washington Center
Sun 08:05:52 AM 36.4819 -79.5794 216° Southwest 401 461 40,000  Level Atlanta Center
Sun 08:06:52 AM 36.3911 -79.6594 215° Southwest 401 461 40,000  Level Atlanta Center
Sun 08:07:52 AM 36.2961 -79.7469 217° Southwest 396 456 40,000  Level Atlanta Center
Sun 08:08:52 AM 36.2092 -79.8264 216° Southwest 396 456 40,000  Level Atlanta Center
Sun 08:09:52 AM 36.1219 -79.9028 215° Southwest 391 450 40,000  Level Atlanta Center
Sun 08:10:52 AM 36.0331 -79.9844 217° Southwest 396 456 40,000  Level Atlanta Center
Sun 08:11:52 AM 35.9303 -80.0306 200° South 396 456 40,000  Level Atlanta Center
Sun 08:12:52 AM 35.8358 -80.0761 201° Southwest 401 461 40,000  Level Atlanta Center
Sun 08:13:52 AM 35.7331 -80.1272 202° Southwest 406 467 40,000  Level Atlanta Center
Sun 08:14:52 AM 35.6183 -80.1889 204° Southwest 412 474 40,000  Level Atlanta Center
Sun 08:15:52 AM 35.5175 -80.2394 202° Southwest 406 467 40,000  Level Atlanta Center
Sun 08:16:52 AM 35.4208 -80.2847 201° Southwest 406 467 40,000  Level Atlanta Center
Sun 08:17:52 AM 35.3142 -80.3381 202° Southwest 411 473 40,000  Level Atlanta Center
Sun 08:19:44 AM 35.1183 -80.4311 201° Southwest 425 489 40,000  Level Jacksonville Center
Sun 08:20:44 AM 35.0131 -80.4847 203° Southwest 419 482 40,000  Level Jacksonville Center
Sun 08:21:44 AM 34.9075 -80.5358 202° Southwest 413 475 40,000  Level Jacksonville Center
Sun 08:22:44 AM 34.7981 -80.5919 203° Southwest 402 463 40,000  Level Jacksonville Center
Sun 08:23:44 AM 34.7008 -80.6375 201° Southwest 402 463 40,000  Level Jacksonville Center
Sun 08:24:44 AM 34.5994 -80.6881 202° Southwest 407 468 40,000  Level Jacksonville Center
Sun 08:25:44 AM 34.4775 -80.7417 200° South 413 475 40,000  Level Jacksonville Center
Sun 08:26:44 AM 34.3719 -80.8019 205° Southwest 408 470 40,000  Level Jacksonville Center
Sun 08:27:44 AM 34.2931 -80.8242 193° South 400 460 40,000  Level Jacksonville Center
Sun 08:28:44 AM 34.1794 -80.8844 204° Southwest 400 460 40,000  Level Jacksonville Center
Sun 08:29:44 AM 34.0736 -80.9369 202° Southwest 406 467 40,000  Level Jacksonville Center
Sun 08:30:44 AM 33.9703 -80.9869 202° Southwest 411 473 40,000  Level Jacksonville Center
Sun 08:31:44 AM 33.8603 -81.0369 201° Southwest 411 473 40,000  Level Jacksonville Center
Sun 08:32:44 AM 33.7567 -81.0864 202° Southwest 411 473 40,000  Level Jacksonville Center
Sun 08:33:44 AM 33.6489 -81.1386 202° Southwest 411 473 40,000  Level Jacksonville Center
Sun 08:34:44 AM 33.5431 -81.1881 201° Southwest 411 473 40,000  Level Jacksonville Center
Sun 08:35:44 AM 33.4394 -81.2372 202° Southwest 411 473 40,000  Level Jacksonville Center
Sun 08:36:44 AM 33.3294 -81.2867 201° Southwest 411 473 40,000  Level Jacksonville Center
Sun 08:37:44 AM 33.2236 -81.3358 201° Southwest 411 473 40,000  Level Jacksonville Center
Sun 08:38:44 AM 33.1178 -81.3847 201° Southwest 411 473 40,000  Level Jacksonville Center
Sun 08:39:44 AM 33.0119 -81.4336 201° Southwest 411 473 40,000  Level Jacksonville Center
Sun 08:40:44 AM 32.9061 -81.4822 201° Southwest 411 473 40,000  Level Jacksonville Center
Sun 08:41:44 AM 32.7958 -81.5308 200° South 411 473 40,000  Level Jacksonville Center
Sun 08:42:44 AM 32.6817 -81.5844 202° Southwest 411 473 40,000  Level Jacksonville Center
Sun 08:43:44 AM 32.5778 -81.6328 201° Southwest 406 467 40,000  Level Jacksonville Center
Sun 08:44:44 AM 32.4822 -81.6761 201° Southwest 411 473 40,000  Level Jacksonville Center
Sun 08:45:44 AM 32.3658 -81.7194 197° South 406 467 40,000  Level Jacksonville Center
Sun 08:46:44 AM 32.2617 -81.7453 192° South 413 475 40,000  Level Jacksonville Center
Sun 08:47:44 AM 32.1386 -81.7739 191° South 413 475 40,000  Level Jacksonville Center
Sun 08:48:44 AM 32.0261 -81.8022 192° South 413 475 40,000  Level Jacksonville Center
Sun 08:49:44 AM 31.9261 -81.8253 191° South 413 475 40,000  Level Jacksonville Center
Sun 08:50:44 AM 31.8031 -81.8511 190° South 413 475 40,000  Level Jacksonville Center
Sun 08:51:44 AM 31.6928 -81.8792 192° South 413 475 40,000  Level Jacksonville Center
Sun 08:52:44 AM 31.5781 -81.9072 192° South 413 475 40,000  Level Jacksonville Center
Sun 08:53:44 AM 31.4656 -81.9331 191° South 413 475 40,000  Level Jacksonville Center
Sun 08:54:44 AM 31.3531 -81.9558 190° South 413 475 40,000  Level Jacksonville Center
Sun 08:55:44 AM 31.2406 -81.9864 193° South 413 475 40,000  Level Jacksonville Center
Sun 08:56:44 AM 31.1383 -82.0092 191° South 419 482 40,000  Level Jacksonville Center
Sun 08:57:44 AM 31.0217 -82.0344 191° South 419 482 40,000  Level Jacksonville Center
Sun 08:58:44 AM 30.9089 -82.0619 192° South 424 488 40,000  Level Jacksonville Center
Sun 08:59:44 AM 30.7942 -82.0872 191° South 424 488 40,000  Level Jacksonville Center
Sun 09:00:44 AM 30.6817 -82.1147 192° South 424 488 40,000  Level Jacksonville Center
Sun 09:01:44 AM 30.5628 -82.1397 190° South 430 495 40,000 -400 Level Jacksonville Center
Sun 09:02:44 AM 30.4481 -82.1600 189° South 430 495 39,200 -900 Descending Jacksonville Center
Sun 09:03:44 AM 30.3356 -82.1875 192° South 425 489 38,200 -800 Descending Jacksonville Center
Sun 09:04:44 AM 30.2208 -82.2122 191° South 425 489 37,600 -800 Descending Jacksonville Center
Sun 09:05:44 AM 30.1042 -82.2394 191° South 430 495 36,600 -950 Descending Jacksonville Center
Sun 09:06:44 AM 29.9872 -82.2714 193° South 430 495 35,700 -1,000 Descending Jacksonville Center
Sun 09:07:44 AM 29.8706 -82.2961 190° South 430 495 34,600 -2,150 Descending Jacksonville Center
Sun 09:08:44 AM 29.7517 -82.3256 192° South 430 495 31,400 -3,300 Descending Jacksonville Center
Sun 09:09:44 AM 29.6306 -82.3478 189° South 430 495 28,000 -2,550 Descending Jacksonville Center
Sun 09:10:44 AM 29.5097 -82.3508 181° South 430 495 26,300 -1,350 Descending Jacksonville Center
Sun 09:11:44 AM 29.3906 -82.3372 174° South 425 489 25,300 -1,000 Descending Jacksonville Center
Sun 09:12:44 AM 29.2714 -82.3189 172° South 425 489 24,300 -1,350 Descending Jacksonville Center
Sun 09:13:44 AM 29.1544 -82.3078 175° South 425 489 22,600 -2,100 Descending Jacksonville Center
Sun 09:14:44 AM 29.0439 -82.2942 174° South 420 483 20,100 -2,400 Descending Jacksonville Center
Sun 09:15:44 AM 28.9247 -82.2806 174° South 407 468 17,800 -2,500 Descending Jacksonville Center
Sun 09:16:44 AM 28.8203 -82.2692 175° South 394 453 15,100 -1,558 Descending Jacksonville Center
Sun 09:19:12 AM 28.5667 -82.2500 176° South 369 425 12,400 -1,067 Descending Tampa TRACON
Sun 09:20:12 AM 28.4667 -82.2667 188° South 351 404 11,400 -789 Descending Tampa TRACON
Sun 09:21:06 AM 28.3833 -82.3000 199° South 341 392 10,900 -211 Descending Tampa TRACON
Sun 09:22:06 AM 28.3167 -82.3167 192° South 288 331 11,000 -496 Climbing Tampa TRACON
Sun 09:23:07 AM 28.2333 -82.3333 190° South 283 326 9,900 -1,289 Descending Tampa TRACON
Sun 09:24:07 AM 28.1667 -82.3667 204° Southwest 278 320 8,400 -1,550 Descending Tampa TRACON
Sun 09:25:07 AM 28.0833 -82.3833 190° South 274 315 6,800 -1,550 Descending Tampa TRACON
Sun 09:26:07 AM 28.0167 -82.4167 204° Southwest 268 308 5,300 -900 Descending Tampa TRACON
Sun 09:27:07 AM 27.9500 -82.4167 180° South 254 292 5,000 -550 Descending Tampa TRACON
Sun 09:28:07 AM 27.8833 -82.4167 180° South 233 268 4,200 -900 Descending Tampa TRACON
Sun 09:29:07 AM 27.8167 -82.4167 180° South 230 265 3,200 -800 Descending Tampa TRACON
Sun 09:30:07 AM 27.7667 -82.4667 222° Southwest 236 272 2,600 -300 Descending Tampa TRACON
Sun 09:31:07 AM 27.7667 -82.5333 270° West 218 251 2,600  Level Tampa TRACON
Sun 09:32:07 AM 27.8167 -82.5500 344° North 203 234 2,600 -400 Level Tampa TRACON
Sun 09:33:07 AM 27.8667 -82.5500 360° North 186 214 1,800 -800 Descending Tampa TRACON
Sun 09:34:07 AM 27.9167 -82.5500 360° North 154 177 1,000 -750 Descending Tampa TRACON
Sun 09:35:07 AM 27.9500 -82.5500 360° North 135 155 300 -700 Descending Tampa TRACON
Sun 09:37:00 AM 27.9667 -82.5167 350° North  Level FlightAware Approximate
Sun 09:44:00 AM 27.9755 -82.5332 350° North  Level Estimated

Login

Don't have an account? Register now (free) for customized features, flight alerts, and more!